Etusivu
METAR-TAF:

METAR-TAF

Lentoasemat :

Chattanooga, Tennessee, Yhdysvallat

Leveyspiiri: 35-02-00N, Pituuspiiri: 085-12-00W, korkeus merenpinnasta: 207 m

Tämänhetkinen sää

Tämä raportti tehtiin 14 minuuttia sitten, kello 08.53 UTC
tyyntä
Lämpötila 6°C
Kosteus 87%
Ilmanpaine 1024 hPa
Näkyvyys: 16.1 km
selkeää

METAR: KCHA 210853Z 00000KT 10SM CLR 06/04 A3025 RMK AO2 SLP241 T00560039 50003 $

Aika: 04:07 (09:07 UTC)

Sääennuste

Tämä raportti tehtiin 3 tuntia ja 45 minuuttia sitten, kello 05.22 UTC
Ennuste voimassa 21. päivästä klo 06 UTC - 22. päivään klo 06 UTC
Tuuli 2 kn eri suunnista
Näkyvyys: 10 km
Hajonneita pilviä 25000 ft:n korkeudessa
From 21. päivästä klo 1600 UTC
Tuuli 6 kn etelästä
Näkyvyys: 10 km
Hajonneita pilviä 15000 ft:n korkeudessa
From 22. päivästä klo 0000 UTC
Tuuli 3 kn eri suunnista
Näkyvyys: 10 km
Pilvistä 8000 ft:n korkeudessa

TAF: KCHA 210522Z 2106/2206 VRB02KT P6SM BKN250 FM211600 19006KT P6SM BKN150 FM220000 VRB03KT P6SM OVC080

Säähavainnot ja -ennusteet yli 4000 lentoasemalta (METAR- ja TAF-raportit).

Käytössä olevat sääasemat on merkitty karttaan keltaisilla ja punaisilla pisteillä.

Aseta hiiri pisteen päälle nähdäksesi sääaseman nimen.

Klikkaa sitten nähdäksesi säähavainnot ja -ennusteet.

Kartan vaihtaminen: klikkaa mustalla rastilla varustettuja vihreitä pisteitä, niin voit zoomata sisään; viivalla varustettua vihreää pistettä, niin voit zoomata ulos tai vihreitä nuolia, niin pääset viereisille kartoille.


METAR-TAF: